sensor_id;sensor_type;location;lat;lon;timestamp;P1;durP1;ratioP1;P2;durP2;ratioP2
74344;SDS011;62776;50.518;6.732;2023-04-24T00:00:04;1.17;;;1.10;;
74344;SDS011;62776;50.518;6.732;2023-04-24T00:02:51;0.90;;;0.90;;
74344;SDS011;62776;50.518;6.732;2023-04-24T00:05:41;1.63;;;0.80;;
74344;SDS011;62776;50.518;6.732;2023-04-24T00:08:29;0.90;;;0.90;;
74344;SDS011;62776;50.518;6.732;2023-04-24T00:11:15;0.80;;;0.80;;
74344;SDS011;62776;50.518;6.732;2023-04-24T00:14:02;0.60;;;0.60;;
74344;SDS011;62776;50.518;6.732;2023-04-24T00:16:48;1.05;;;0.80;;
74344;SDS011;62776;50.518;6.732;2023-04-24T00:19:37;1.10;;;1.10;;
74344;SDS011;62776;50.518;6.732;2023-04-24T00:22:24;0.82;;;0.70;;
74344;SDS011;62776;50.518;6.732;2023-04-24T00:25:12;1.42;;;0.95;;
74344;SDS011;62776;50.518;6.732;2023-04-24T00:28:00;0.93;;;0.93;;
74344;SDS011;62776;50.518;6.732;2023-04-24T00:33:41;2.40;;;1.38;;
74344;SDS011;62776;50.518;6.732;2023-04-24T00:36:27;0.90;;;0.90;;
74344;SDS011;62776;50.518;6.732;2023-04-24T00:39:19;1.00;;;1.00;;
74344;SDS011;62776;50.518;6.732;2023-04-24T00:42:05;1.52;;;1.00;;
74344;SDS011;62776;50.518;6.732;2023-04-24T00:44:53;1.40;;;1.23;;
74344;SDS011;62776;50.518;6.732;2023-04-24T00:47:47;2.10;;;1.13;;
74344;SDS011;62776;50.518;6.732;2023-04-24T00:50:38;1.55;;;1.45;;
74344;SDS011;62776;50.518;6.732;2023-04-24T00:53:24;1.45;;;1.35;;
74344;SDS011;62776;50.518;6.732;2023-04-24T00:56:13;1.10;;;1.10;;
74344;SDS011;62776;50.518;6.732;2023-04-24T00:59:01;1.73;;;1.40;;
74344;SDS011;62776;50.518;6.732;2023-04-24T01:01:49;1.45;;;1.35;;
74344;SDS011;62776;50.518;6.732;2023-04-24T01:04:37;1.73;;;1.63;;
74344;SDS011;62776;50.518;6.732;2023-04-24T01:07:24;1.42;;;1.33;;
74344;SDS011;62776;50.518;6.732;2023-04-24T01:10:11;2.22;;;1.73;;
74344;SDS011;62776;50.518;6.732;2023-04-24T01:12:58;1.63;;;1.42;;
74344;SDS011;62776;50.518;6.732;2023-04-24T01:15:47;2.15;;;2.05;;
74344;SDS011;62776;50.518;6.732;2023-04-24T01:18:34;2.17;;;1.63;;
74344;SDS011;62776;50.518;6.732;2023-04-24T01:21:20;1.80;;;1.70;;
74344;SDS011;62776;50.518;6.732;2023-04-24T01:24:08;1.98;;;1.88;;
74344;SDS011;62776;50.518;6.732;2023-04-24T01:26:57;2.10;;;2.00;;
74344;SDS011;62776;50.518;6.732;2023-04-24T01:29:44;2.38;;;2.17;;
74344;SDS011;62776;50.518;6.732;2023-04-24T01:32:32;2.10;;;1.90;;
74344;SDS011;62776;50.518;6.732;2023-04-24T01:35:20;2.00;;;1.80;;
74344;SDS011;62776;50.518;6.732;2023-04-24T01:38:08;2.22;;;1.98;;
74344;SDS011;62776;50.518;6.732;2023-04-24T01:40:55;4.00;;;2.97;;
74344;SDS011;62776;50.518;6.732;2023-04-24T01:43:42;4.75;;;2.78;;
74344;SDS011;62776;50.518;6.732;2023-04-24T01:46:35;3.33;;;3.13;;
74344;SDS011;62776;50.518;6.732;2023-04-24T01:49:24;3.63;;;3.35;;
74344;SDS011;62776;50.518;6.732;2023-04-24T01:52:11;3.47;;;3.17;;
74344;SDS011;62776;50.518;6.732;2023-04-24T01:55:02;3.63;;;3.38;;
74344;SDS011;62776;50.518;6.732;2023-04-24T01:57:49;3.50;;;3.20;;
74344;SDS011;62776;50.518;6.732;2023-04-24T02:00:37;4.05;;;3.75;;
74344;SDS011;62776;50.518;6.732;2023-04-24T02:03:25;4.82;;;4.35;;
74344;SDS011;62776;50.518;6.732;2023-04-24T02:06:11;4.45;;;4.15;;
74344;SDS011;62776;50.518;6.732;2023-04-24T02:08:58;4.60;;;4.30;;
74344;SDS011;62776;50.518;6.732;2023-04-24T02:11:45;5.15;;;4.75;;
74344;SDS011;62776;50.518;6.732;2023-04-24T02:14:31;5.18;;;4.78;;
74344;SDS011;62776;50.518;6.732;2023-04-24T02:17:18;4.95;;;4.55;;
74344;SDS011;62776;50.518;6.732;2023-04-24T02:20:06;4.90;;;4.50;;
74344;SDS011;62776;50.518;6.732;2023-04-24T02:22:53;8.43;;;5.32;;
74344;SDS011;62776;50.518;6.732;2023-04-24T02:25:40;6.75;;;4.95;;
74344;SDS011;62776;50.518;6.732;2023-04-24T02:28:29;5.07;;;4.57;;
74344;SDS011;62776;50.518;6.732;2023-04-24T02:31:16;6.55;;;6.05;;
74344;SDS011;62776;50.518;6.732;2023-04-24T02:34:06;4.93;;;4.55;;
74344;SDS011;62776;50.518;6.732;2023-04-24T02:36:53;5.20;;;4.80;;
74344;SDS011;62776;50.518;6.732;2023-04-24T02:39:45;5.10;;;4.63;;
74344;SDS011;62776;50.518;6.732;2023-04-24T02:42:31;5.28;;;4.88;;
74344;SDS011;62776;50.518;6.732;2023-04-24T02:45:17;4.63;;;4.20;;
74344;SDS011;62776;50.518;6.732;2023-04-24T02:48:04;4.78;;;4.38;;
74344;SDS011;62776;50.518;6.732;2023-04-24T02:50:50;6.18;;;5.57;;
74344;SDS011;62776;50.518;6.732;2023-04-24T02:53:37;4.70;;;4.30;;
74344;SDS011;62776;50.518;6.732;2023-04-24T02:56:24;4.80;;;4.40;;
74344;SDS011;62776;50.518;6.732;2023-04-24T02:59:14;5.10;;;4.57;;
74344;SDS011;62776;50.518;6.732;2023-04-24T03:02:00;5.10;;;4.70;;
74344;SDS011;62776;50.518;6.732;2023-04-24T03:04:54;5.95;;;5.45;;
74344;SDS011;62776;50.518;6.732;2023-04-24T03:07:40;5.60;;;5.10;;
74344;SDS011;62776;50.518;6.732;2023-04-24T03:10:27;5.32;;;4.78;;
74344;SDS011;62776;50.518;6.732;2023-04-24T03:13:15;5.78;;;5.28;;
74344;SDS011;62776;50.518;6.732;2023-04-24T03:16:03;5.88;;;5.40;;
74344;SDS011;62776;50.518;6.732;2023-04-24T03:18:50;5.85;;;5.22;;
74344;SDS011;62776;50.518;6.732;2023-04-24T03:21:38;5.47;;;5.07;;
74344;SDS011;62776;50.518;6.732;2023-04-24T03:24:25;6.13;;;5.68;;
74344;SDS011;62776;50.518;6.732;2023-04-24T03:27:12;6.03;;;5.45;;
74344;SDS011;62776;50.518;6.732;2023-04-24T03:29:59;5.88;;;5.35;;
74344;SDS011;62776;50.518;6.732;2023-04-24T03:32:46;6.25;;;5.75;;
74344;SDS011;62776;50.518;6.732;2023-04-24T03:35:33;6.88;;;6.25;;
74344;SDS011;62776;50.518;6.732;2023-04-24T03:38:19;6.72;;;6.05;;
74344;SDS011;62776;50.518;6.732;2023-04-24T03:41:09;6.03;;;5.63;;
74344;SDS011;62776;50.518;6.732;2023-04-24T03:43:55;6.38;;;5.80;;
74344;SDS011;62776;50.518;6.732;2023-04-24T03:46:41;5.70;;;5.20;;
74344;SDS011;62776;50.518;6.732;2023-04-24T03:49:35;6.18;;;5.68;;
74344;SDS011;62776;50.518;6.732;2023-04-24T03:52:28;6.60;;;6.00;;
74344;SDS011;62776;50.518;6.732;2023-04-24T03:55:16;6.63;;;6.10;;
74344;SDS011;62776;50.518;6.732;2023-04-24T03:58:03;6.47;;;5.95;;
74344;SDS011;62776;50.518;6.732;2023-04-24T04:00:51;6.45;;;5.95;;
74344;SDS011;62776;50.518;6.732;2023-04-24T04:03:37;6.50;;;5.97;;
74344;SDS011;62776;50.518;6.732;2023-04-24T04:06:23;6.65;;;6.15;;
74344;SDS011;62776;50.518;6.732;2023-04-24T04:09:10;6.38;;;5.88;;
74344;SDS011;62776;50.518;6.732;2023-04-24T04:11:56;5.95;;;5.43;;
74344;SDS011;62776;50.518;6.732;2023-04-24T04:14:42;6.63;;;5.47;;
74344;SDS011;62776;50.518;6.732;2023-04-24T04:17:29;6.75;;;6.15;;
74344;SDS011;62776;50.518;6.732;2023-04-24T04:20:17;6.15;;;5.55;;
74344;SDS011;62776;50.518;6.732;2023-04-24T04:23:05;7.65;;;6.43;;
74344;SDS011;62776;50.518;6.732;2023-04-24T04:25:57;5.90;;;5.40;;
74344;SDS011;62776;50.518;6.732;2023-04-24T04:28:45;6.65;;;6.10;;
74344;SDS011;62776;50.518;6.732;2023-04-24T04:31:33;7.75;;;6.97;;
74344;SDS011;62776;50.518;6.732;2023-04-24T04:34:21;5.97;;;5.47;;
74344;SDS011;62776;50.518;6.732;2023-04-24T04:37:13;9.15;;;6.45;;
74344;SDS011;62776;50.518;6.732;2023-04-24T04:40:02;6.78;;;6.18;;
74344;SDS011;62776;50.518;6.732;2023-04-24T04:42:54;6.25;;;5.68;;
74344;SDS011;62776;50.518;6.732;2023-04-24T04:45:41;6.22;;;5.63;;
74344;SDS011;62776;50.518;6.732;2023-04-24T04:48:29;6.53;;;5.78;;
74344;SDS011;62776;50.518;6.732;2023-04-24T04:51:18;8.63;;;5.72;;
74344;SDS011;62776;50.518;6.732;2023-04-24T04:54:12;6.03;;;5.45;;
74344;SDS011;62776;50.518;6.732;2023-04-24T04:57:04;8.85;;;6.07;;
74344;SDS011;62776;50.518;6.732;2023-04-24T04:59:52;7.15;;;5.82;;
74344;SDS011;62776;50.518;6.732;2023-04-24T05:02:38;5.85;;;5.45;;
74344;SDS011;62776;50.518;6.732;2023-04-24T05:05:26;6.65;;;6.05;;
74344;SDS011;62776;50.518;6.732;2023-04-24T05:08:14;5.97;;;5.47;;
74344;SDS011;62776;50.518;6.732;2023-04-24T05:11:00;6.78;;;5.90;;
74344;SDS011;62776;50.518;6.732;2023-04-24T05:13:47;5.82;;;5.28;;
74344;SDS011;62776;50.518;6.732;2023-04-24T05:16:33;5.65;;;5.15;;
74344;SDS011;62776;50.518;6.732;2023-04-24T05:19:21;5.85;;;5.20;;
74344;SDS011;62776;50.518;6.732;2023-04-24T05:22:08;6.18;;;5.68;;
74344;SDS011;62776;50.518;6.732;2023-04-24T05:25:01;6.63;;;5.57;;
74344;SDS011;62776;50.518;6.732;2023-04-24T05:27:50;6.50;;;5.90;;
74344;SDS011;62776;50.518;6.732;2023-04-24T05:30:38;7.05;;;6.35;;
74344;SDS011;62776;50.518;6.732;2023-04-24T05:33:26;6.15;;;5.55;;
74344;SDS011;62776;50.518;6.732;2023-04-24T05:36:13;5.40;;;4.90;;
74344;SDS011;62776;50.518;6.732;2023-04-24T05:39:00;5.80;;;5.30;;
74344;SDS011;62776;50.518;6.732;2023-04-24T05:41:46;6.15;;;5.65;;
74344;SDS011;62776;50.518;6.732;2023-04-24T05:44:32;6.30;;;5.55;;
74344;SDS011;62776;50.518;6.732;2023-04-24T05:47:18;6.82;;;6.22;;
74344;SDS011;62776;50.518;6.732;2023-04-24T05:50:07;6.30;;;5.80;;
74344;SDS011;62776;50.518;6.732;2023-04-24T05:52:54;6.05;;;5.55;;
74344;SDS011;62776;50.518;6.732;2023-04-24T05:55:43;6.82;;;5.43;;
74344;SDS011;62776;50.518;6.732;2023-04-24T05:58:29;6.47;;;5.78;;
74344;SDS011;62776;50.518;6.732;2023-04-24T06:01:17;5.47;;;4.97;;
74344;SDS011;62776;50.518;6.732;2023-04-24T06:04:04;6.03;;;5.40;;
74344;SDS011;62776;50.518;6.732;2023-04-24T06:06:59;5.45;;;5.05;;
74344;SDS011;62776;50.518;6.732;2023-04-24T06:09:47;6.40;;;5.63;;
74344;SDS011;62776;50.518;6.732;2023-04-24T06:12:34;5.53;;;5.03;;
74344;SDS011;62776;50.518;6.732;2023-04-24T06:15:23;5.10;;;4.70;;
74344;SDS011;62776;50.518;6.732;2023-04-24T06:18:11;5.10;;;4.70;;
74344;SDS011;62776;50.518;6.732;2023-04-24T06:21:06;4.93;;;4.53;;
74344;SDS011;62776;50.518;6.732;2023-04-24T06:24:06;4.65;;;4.28;;
74344;SDS011;62776;50.518;6.732;2023-04-24T06:26:53;5.53;;;4.93;;
74344;SDS011;62776;50.518;6.732;2023-04-24T06:29:42;4.45;;;4.03;;
74344;SDS011;62776;50.518;6.732;2023-04-24T06:32:31;4.15;;;3.85;;
74344;SDS011;62776;50.518;6.732;2023-04-24T06:35:17;3.45;;;3.22;;
74344;SDS011;62776;50.518;6.732;2023-04-24T06:38:12;3.70;;;3.40;;
74344;SDS011;62776;50.518;6.732;2023-04-24T06:40:59;2.88;;;2.67;;
74344;SDS011;62776;50.518;6.732;2023-04-24T06:43:45;3.65;;;3.38;;
74344;SDS011;62776;50.518;6.732;2023-04-24T06:46:33;2.90;;;2.70;;
74344;SDS011;62776;50.518;6.732;2023-04-24T06:49:20;3.45;;;3.15;;
74344;SDS011;62776;50.518;6.732;2023-04-24T06:52:22;2.65;;;2.45;;
74344;SDS011;62776;50.518;6.732;2023-04-24T06:55:10;3.58;;;3.28;;
74344;SDS011;62776;50.518;6.732;2023-04-24T06:57:58;3.40;;;2.60;;
74344;SDS011;62776;50.518;6.732;2023-04-24T07:00:45;2.90;;;2.70;;
74344;SDS011;62776;50.518;6.732;2023-04-24T07:03:34;2.88;;;2.67;;
74344;SDS011;62776;50.518;6.732;2023-04-24T07:06:20;2.75;;;2.55;;
74344;SDS011;62776;50.518;6.732;2023-04-24T07:09:07;2.08;;;1.98;;
74344;SDS011;62776;50.518;6.732;2023-04-24T07:11:55;2.20;;;2.10;;
74344;SDS011;62776;50.518;6.732;2023-04-24T07:14:42;2.53;;;2.35;;
74344;SDS011;62776;50.518;6.732;2023-04-24T07:17:28;2.30;;;2.13;;
74344;SDS011;62776;50.518;6.732;2023-04-24T07:20:16;2.47;;;2.28;;
74344;SDS011;62776;50.518;6.732;2023-04-24T07:23:02;2.00;;;1.90;;
74344;SDS011;62776;50.518;6.732;2023-04-24T07:25:54;2.40;;;2.20;;
74344;SDS011;62776;50.518;6.732;2023-04-24T07:28:42;1.85;;;1.70;;
74344;SDS011;62776;50.518;6.732;2023-04-24T07:31:29;2.13;;;1.92;;
74344;SDS011;62776;50.518;6.732;2023-04-24T07:34:17;1.95;;;1.75;;
74344;SDS011;62776;50.518;6.732;2023-04-24T07:37:10;1.30;;;1.20;;
74344;SDS011;62776;50.518;6.732;2023-04-24T07:39:58;1.75;;;1.45;;
74344;SDS011;62776;50.518;6.732;2023-04-24T07:42:50;1.00;;;1.00;;
74344;SDS011;62776;50.518;6.732;2023-04-24T07:45:36;2.05;;;1.25;;
74344;SDS011;62776;50.518;6.732;2023-04-24T07:48:23;1.13;;;1.10;;
74344;SDS011;62776;50.518;6.732;2023-04-24T07:51:21;0.85;;;0.85;;
74344;SDS011;62776;50.518;6.732;2023-04-24T07:54:07;0.80;;;0.80;;
74344;SDS011;62776;50.518;6.732;2023-04-24T07:56:54;0.70;;;0.70;;
74344;SDS011;62776;50.518;6.732;2023-04-24T07:59:47;0.65;;;0.65;;
74344;SDS011;62776;50.518;6.732;2023-04-24T08:02:37;0.75;;;0.70;;
74344;SDS011;62776;50.518;6.732;2023-04-24T08:05:30;0.60;;;0.60;;
74344;SDS011;62776;50.518;6.732;2023-04-24T08:08:28;0.73;;;0.63;;
74344;SDS011;62776;50.518;6.732;2023-04-24T08:11:15;0.70;;;0.70;;
74344;SDS011;62776;50.518;6.732;2023-04-24T08:14:04;2.15;;;0.75;;
74344;SDS011;62776;50.518;6.732;2023-04-24T08:16:52;0.70;;;0.70;;
74344;SDS011;62776;50.518;6.732;2023-04-24T08:19:41;0.60;;;0.60;;
74344;SDS011;62776;50.518;6.732;2023-04-24T08:22:32;0.90;;;0.90;;
74344;SDS011;62776;50.518;6.732;2023-04-24T08:25:20;1.63;;;0.90;;
74344;SDS011;62776;50.518;6.732;2023-04-24T08:28:13;0.70;;;0.70;;
74344;SDS011;62776;50.518;6.732;2023-04-24T08:31:13;1.75;;;1.00;;
74344;SDS011;62776;50.518;6.732;2023-04-24T08:34:01;0.98;;;0.98;;
74344;SDS011;62776;50.518;6.732;2023-04-24T08:36:46;0.80;;;0.80;;
74344;SDS011;62776;50.518;6.732;2023-04-24T08:39:34;0.93;;;0.90;;
74344;SDS011;62776;50.518;6.732;2023-04-24T08:42:21;0.80;;;0.80;;
74344;SDS011;62776;50.518;6.732;2023-04-24T08:45:08;1.15;;;1.05;;
74344;SDS011;62776;50.518;6.732;2023-04-24T08:48:01;1.60;;;1.00;;
74344;SDS011;62776;50.518;6.732;2023-04-24T08:50:52;1.73;;;1.30;;
74344;SDS011;62776;50.518;6.732;2023-04-24T08:53:39;1.00;;;0.95;;
74344;SDS011;62776;50.518;6.732;2023-04-24T08:56:25;1.00;;;1.00;;
74344;SDS011;62776;50.518;6.732;2023-04-24T08:59:16;0.80;;;0.80;;
74344;SDS011;62776;50.518;6.732;2023-04-24T09:02:11;0.85;;;0.85;;
74344;SDS011;62776;50.518;6.732;2023-04-24T09:05:02;1.17;;;1.08;;
74344;SDS011;62776;50.518;6.732;2023-04-24T09:07:52;0.73;;;0.73;;
74344;SDS011;62776;50.518;6.732;2023-04-24T09:10:43;1.10;;;1.00;;
74344;SDS011;62776;50.518;6.732;2023-04-24T09:13:31;1.08;;;1.02;;
74344;SDS011;62776;50.518;6.732;2023-04-24T09:16:19;1.30;;;1.20;;
74344;SDS011;62776;50.518;6.732;2023-04-24T09:19:20;2.15;;;1.40;;
74344;SDS011;62776;50.518;6.732;2023-04-24T09:22:10;1.48;;;1.38;;
74344;SDS011;62776;50.518;6.732;2023-04-24T09:25:04;1.45;;;1.35;;
74344;SDS011;62776;50.518;6.732;2023-04-24T09:28:02;1.60;;;1.50;;
74344;SDS011;62776;50.518;6.732;2023-04-24T09:31:02;1.67;;;1.58;;
74344;SDS011;62776;50.518;6.732;2023-04-24T09:34:01;1.20;;;1.20;;
74344;SDS011;62776;50.518;6.732;2023-04-24T09:36:59;1.58;;;1.48;;
74344;SDS011;62776;50.518;6.732;2023-04-24T09:40:06;1.30;;;1.20;;
74344;SDS011;62776;50.518;6.732;2023-04-24T09:42:55;1.40;;;1.30;;
74344;SDS011;62776;50.518;6.732;2023-04-24T09:45:45;2.28;;;2.13;;
74344;SDS011;62776;50.518;6.732;2023-04-24T09:48:33;2.28;;;2.08;;
74344;SDS011;62776;50.518;6.732;2023-04-24T09:51:33;2.15;;;1.95;;
74344;SDS011;62776;50.518;6.732;2023-04-24T09:54:30;2.60;;;2.40;;
74344;SDS011;62776;50.518;6.732;2023-04-24T09:57:18;2.47;;;2.28;;
74344;SDS011;62776;50.518;6.732;2023-04-24T10:00:06;2.60;;;2.40;;
74344;SDS011;62776;50.518;6.732;2023-04-24T10:05:47;2.80;;;2.03;;
74344;SDS011;62776;50.518;6.732;2023-04-24T10:08:35;3.30;;;2.95;;
74344;SDS011;62776;50.518;6.732;2023-04-24T10:11:22;2.78;;;2.40;;
74344;SDS011;62776;50.518;6.732;2023-04-24T10:14:15;2.55;;;2.35;;
74344;SDS011;62776;50.518;6.732;2023-04-24T10:17:09;3.60;;;2.72;;
74344;SDS011;62776;50.518;6.732;2023-04-24T10:20:04;3.03;;;2.83;;
74344;SDS011;62776;50.518;6.732;2023-04-24T10:22:53;3.85;;;3.50;;
74344;SDS011;62776;50.518;6.732;2023-04-24T10:25:41;5.70;;;3.50;;
74344;SDS011;62776;50.518;6.732;2023-04-24T10:28:28;3.63;;;3.33;;
74344;SDS011;62776;50.518;6.732;2023-04-24T10:31:22;3.67;;;3.38;;
74344;SDS011;62776;50.518;6.732;2023-04-24T10:34:11;3.50;;;3.20;;
74344;SDS011;62776;50.518;6.732;2023-04-24T10:37:02;5.22;;;3.30;;
74344;SDS011;62776;50.518;6.732;2023-04-24T10:39:55;4.35;;;3.58;;
74344;SDS011;62776;50.518;6.732;2023-04-24T10:42:42;4.00;;;3.47;;
74344;SDS011;62776;50.518;6.732;2023-04-24T10:45:33;5.45;;;3.97;;
74344;SDS011;62776;50.518;6.732;2023-04-24T10:48:25;4.63;;;3.35;;
74344;SDS011;62776;50.518;6.732;2023-04-24T10:51:14;4.75;;;3.70;;
74344;SDS011;62776;50.518;6.732;2023-04-24T10:54:21;3.95;;;3.53;;
74344;SDS011;62776;50.518;6.732;2023-04-24T11:00:20;5.22;;;4.63;;
74344;SDS011;62776;50.518;6.732;2023-04-24T11:03:24;5.10;;;4.63;;
74344;SDS011;62776;50.518;6.732;2023-04-24T11:06:11;5.03;;;4.53;;
74344;SDS011;62776;50.518;6.732;2023-04-24T11:09:09;5.07;;;4.53;;
74344;SDS011;62776;50.518;6.732;2023-04-24T11:12:11;8.23;;;5.25;;
74344;SDS011;62776;50.518;6.732;2023-04-24T11:15:10;6.57;;;5.53;;
74344;SDS011;62776;50.518;6.732;2023-04-24T11:17:57;6.30;;;5.70;;
74344;SDS011;62776;50.518;6.732;2023-04-24T11:20:44;7.30;;;5.57;;
74344;SDS011;62776;50.518;6.732;2023-04-24T11:23:35;9.73;;;6.40;;
74344;SDS011;62776;50.518;6.732;2023-04-24T11:26:22;9.18;;;6.30;;
74344;SDS011;62776;50.518;6.732;2023-04-24T11:29:15;7.85;;;7.15;;
74344;SDS011;62776;50.518;6.732;2023-04-24T11:32:30;8.80;;;6.97;;
74344;SDS011;62776;50.518;6.732;2023-04-24T11:35:22;7.03;;;6.32;;
74344;SDS011;62776;50.518;6.732;2023-04-24T11:38:10;7.07;;;6.13;;
74344;SDS011;62776;50.518;6.732;2023-04-24T11:40:58;7.40;;;6.45;;
74344;SDS011;62776;50.518;6.732;2023-04-24T11:43:48;6.47;;;5.88;;
74344;SDS011;62776;50.518;6.732;2023-04-24T11:46:35;9.65;;;6.57;;
74344;SDS011;62776;50.518;6.732;2023-04-24T11:49:22;6.10;;;5.60;;
74344;SDS011;62776;50.518;6.732;2023-04-24T11:52:16;6.90;;;5.45;;
74344;SDS011;62776;50.518;6.732;2023-04-24T11:55:04;5.93;;;5.22;;
74344;SDS011;62776;50.518;6.732;2023-04-24T11:58:12;5.68;;;4.70;;
74344;SDS011;62776;50.518;6.732;2023-04-24T12:01:00;5.10;;;4.65;;
74344;SDS011;62776;50.518;6.732;2023-04-24T12:03:49;4.95;;;4.45;;
74344;SDS011;62776;50.518;6.732;2023-04-24T12:07:02;5.53;;;4.68;;
74344;SDS011;62776;50.518;6.732;2023-04-24T12:09:57;7.72;;;4.57;;
74344;SDS011;62776;50.518;6.732;2023-04-24T12:12:46;5.65;;;4.22;;
74344;SDS011;62776;50.518;6.732;2023-04-24T12:15:39;7.90;;;5.07;;
74344;SDS011;62776;50.518;6.732;2023-04-24T12:18:27;5.30;;;4.82;;
74344;SDS011;62776;50.518;6.732;2023-04-24T12:21:17;4.43;;;3.97;;
74344;SDS011;62776;50.518;6.732;2023-04-24T12:24:06;4.70;;;3.67;;
74344;SDS011;62776;50.518;6.732;2023-04-24T12:26:53;4.70;;;4.30;;
74344;SDS011;62776;50.518;6.732;2023-04-24T12:29:52;4.35;;;3.95;;
74344;SDS011;62776;50.518;6.732;2023-04-24T12:32:44;4.15;;;3.58;;
74344;SDS011;62776;50.518;6.732;2023-04-24T12:35:32;4.97;;;3.90;;
74344;SDS011;62776;50.518;6.732;2023-04-24T12:38:23;5.15;;;3.83;;
74344;SDS011;62776;50.518;6.732;2023-04-24T12:41:11;4.22;;;3.83;;
74344;SDS011;62776;50.518;6.732;2023-04-24T12:44:00;5.45;;;3.90;;
74344;SDS011;62776;50.518;6.732;2023-04-24T12:46:46;6.13;;;4.22;;
74344;SDS011;62776;50.518;6.732;2023-04-24T12:49:33;6.72;;;4.43;;
74344;SDS011;62776;50.518;6.732;2023-04-24T12:52:19;5.07;;;4.63;;
74344;SDS011;62776;50.518;6.732;2023-04-24T12:55:09;6.10;;;3.97;;
74344;SDS011;62776;50.518;6.732;2023-04-24T12:57:58;4.85;;;3.70;;
74344;SDS011;62776;50.518;6.732;2023-04-24T13:00:45;6.20;;;4.13;;
74344;SDS011;62776;50.518;6.732;2023-04-24T13:03:32;4.50;;;3.92;;
74344;SDS011;62776;50.518;6.732;2023-04-24T13:06:18;7.20;;;3.65;;
74344;SDS011;62776;50.518;6.732;2023-04-24T13:09:12;4.68;;;3.72;;
74344;SDS011;62776;50.518;6.732;2023-04-24T13:12:01;7.57;;;3.85;;
74344;SDS011;62776;50.518;6.732;2023-04-24T13:14:48;4.07;;;3.58;;
74344;SDS011;62776;50.518;6.732;2023-04-24T13:17:36;6.15;;;3.65;;
74344;SDS011;62776;50.518;6.732;2023-04-24T13:20:23;5.55;;;4.03;;
74344;SDS011;62776;50.518;6.732;2023-04-24T13:23:12;5.22;;;3.65;;
74344;SDS011;62776;50.518;6.732;2023-04-24T13:28:51;5.10;;;4.55;;
74344;SDS011;62776;50.518;6.732;2023-04-24T13:31:38;5.13;;;4.07;;
74344;SDS011;62776;50.518;6.732;2023-04-24T13:34:25;6.43;;;4.28;;
74344;SDS011;62776;50.518;6.732;2023-04-24T13:37:13;4.78;;;4.05;;
74344;SDS011;62776;50.518;6.732;2023-04-24T13:40:06;5.30;;;3.67;;
74344;SDS011;62776;50.518;6.732;2023-04-24T13:42:53;5.60;;;3.75;;
74344;SDS011;62776;50.518;6.732;2023-04-24T13:45:42;6.18;;;4.60;;
74344;SDS011;62776;50.518;6.732;2023-04-24T13:48:29;4.65;;;3.95;;
74344;SDS011;62776;50.518;6.732;2023-04-24T13:51:15;7.13;;;4.20;;
74344;SDS011;62776;50.518;6.732;2023-04-24T13:54:02;7.18;;;5.32;;
74344;SDS011;62776;50.518;6.732;2023-04-24T13:56:49;5.63;;;4.15;;
74344;SDS011;62776;50.518;6.732;2023-04-24T13:59:36;5.07;;;4.57;;
74344;SDS011;62776;50.518;6.732;2023-04-24T14:02:24;3.88;;;3.47;;
74344;SDS011;62776;50.518;6.732;2023-04-24T14:05:13;5.43;;;4.18;;
74344;SDS011;62776;50.518;6.732;2023-04-24T14:08:01;4.97;;;4.22;;
74344;SDS011;62776;50.518;6.732;2023-04-24T14:10:51;5.05;;;4.32;;
74344;SDS011;62776;50.518;6.732;2023-04-24T14:13:42;5.40;;;4.90;;
74344;SDS011;62776;50.518;6.732;2023-04-24T14:16:31;6.90;;;4.35;;
74344;SDS011;62776;50.518;6.732;2023-04-24T14:19:18;4.13;;;3.78;;
74344;SDS011;62776;50.518;6.732;2023-04-24T14:22:05;6.10;;;4.45;;
74344;SDS011;62776;50.518;6.732;2023-04-24T14:24:51;4.10;;;3.80;;
74344;SDS011;62776;50.518;6.732;2023-04-24T14:27:38;5.35;;;4.85;;
74344;SDS011;62776;50.518;6.732;2023-04-24T14:30:25;4.22;;;3.92;;
74344;SDS011;62776;50.518;6.732;2023-04-24T14:33:13;5.70;;;5.20;;
74344;SDS011;62776;50.518;6.732;2023-04-24T14:36:00;4.95;;;4.45;;
74344;SDS011;62776;50.518;6.732;2023-04-24T14:38:48;4.55;;;4.20;;
74344;SDS011;62776;50.518;6.732;2023-04-24T14:41:35;5.40;;;4.88;;
74344;SDS011;62776;50.518;6.732;2023-04-24T14:44:23;4.80;;;4.30;;
74344;SDS011;62776;50.518;6.732;2023-04-24T14:47:10;4.32;;;4.03;;
74344;SDS011;62776;50.518;6.732;2023-04-24T14:50:03;4.32;;;3.83;;
74344;SDS011;62776;50.518;6.732;2023-04-24T14:52:51;4.72;;;4.22;;
74344;SDS011;62776;50.518;6.732;2023-04-24T14:55:39;4.82;;;4.30;;
74344;SDS011;62776;50.518;6.732;2023-04-24T14:58:26;4.03;;;3.70;;
74344;SDS011;62776;50.518;6.732;2023-04-24T15:01:14;5.35;;;4.65;;
74344;SDS011;62776;50.518;6.732;2023-04-24T15:04:00;4.68;;;4.28;;
74344;SDS011;62776;50.518;6.732;2023-04-24T15:06:47;4.45;;;4.05;;
74344;SDS011;62776;50.518;6.732;2023-04-24T15:09:34;5.00;;;4.05;;
74344;SDS011;62776;50.518;6.732;2023-04-24T15:12:27;5.72;;;4.28;;
74344;SDS011;62776;50.518;6.732;2023-04-24T15:15:13;4.07;;;3.78;;
74344;SDS011;62776;50.518;6.732;2023-04-24T15:18:04;4.72;;;3.88;;
74344;SDS011;62776;50.518;6.732;2023-04-24T15:20:51;5.13;;;4.63;;
74344;SDS011;62776;50.518;6.732;2023-04-24T15:23:41;4.35;;;4.05;;
74344;SDS011;62776;50.518;6.732;2023-04-24T15:26:31;4.38;;;3.95;;
74344;SDS011;62776;50.518;6.732;2023-04-24T15:29:17;4.40;;;4.03;;
74344;SDS011;62776;50.518;6.732;2023-04-24T15:32:05;4.90;;;4.50;;
74344;SDS011;62776;50.518;6.732;2023-04-24T15:34:51;4.88;;;4.45;;
74344;SDS011;62776;50.518;6.732;2023-04-24T15:37:38;5.60;;;5.07;;
74344;SDS011;62776;50.518;6.732;2023-04-24T15:40:27;5.45;;;4.95;;
74344;SDS011;62776;50.518;6.732;2023-04-24T15:43:16;5.20;;;4.50;;
74344;SDS011;62776;50.518;6.732;2023-04-24T15:46:04;6.43;;;4.90;;
74344;SDS011;62776;50.518;6.732;2023-04-24T15:48:51;5.40;;;4.85;;
74344;SDS011;62776;50.518;6.732;2023-04-24T15:51:38;5.68;;;5.22;;
74344;SDS011;62776;50.518;6.732;2023-04-24T15:54:24;7.05;;;5.38;;
74344;SDS011;62776;50.518;6.732;2023-04-24T15:57:11;5.88;;;5.38;;
74344;SDS011;62776;50.518;6.732;2023-04-24T15:59:58;6.60;;;5.88;;
74344;SDS011;62776;50.518;6.732;2023-04-24T16:02:47;6.32;;;5.72;;
74344;SDS011;62776;50.518;6.732;2023-04-24T16:05:35;6.15;;;5.55;;
74344;SDS011;62776;50.518;6.732;2023-04-24T16:08:22;7.05;;;6.35;;
74344;SDS011;62776;50.518;6.732;2023-04-24T16:11:14;6.75;;;6.25;;
74344;SDS011;62776;50.518;6.732;2023-04-24T16:14:01;6.97;;;6.28;;
74344;SDS011;62776;50.518;6.732;2023-04-24T16:16:47;6.38;;;5.82;;
74344;SDS011;62776;50.518;6.732;2023-04-24T16:19:34;6.57;;;5.88;;
74344;SDS011;62776;50.518;6.732;2023-04-24T16:22:21;6.32;;;5.78;;
74344;SDS011;62776;50.518;6.732;2023-04-24T16:25:07;7.85;;;7.05;;
74344;SDS011;62776;50.518;6.732;2023-04-24T16:27:54;7.40;;;6.72;;
74344;SDS011;62776;50.518;6.732;2023-04-24T16:30:41;6.85;;;6.30;;
74344;SDS011;62776;50.518;6.732;2023-04-24T16:33:27;6.28;;;5.72;;
74344;SDS011;62776;50.518;6.732;2023-04-24T16:36:19;6.85;;;6.25;;
74344;SDS011;62776;50.518;6.732;2023-04-24T16:39:08;7.20;;;6.50;;
74344;SDS011;62776;50.518;6.732;2023-04-24T16:41:55;8.73;;;5.82;;
74344;SDS011;62776;50.518;6.732;2023-04-24T16:44:41;6.47;;;5.85;;
74344;SDS011;62776;50.518;6.732;2023-04-24T16:47:28;7.45;;;6.63;;
74344;SDS011;62776;50.518;6.732;2023-04-24T16:50:15;7.28;;;6.57;;
74344;SDS011;62776;50.518;6.732;2023-04-24T16:53:07;9.57;;;7.35;;
74344;SDS011;62776;50.518;6.732;2023-04-24T16:55:53;6.15;;;5.65;;
74344;SDS011;62776;50.518;6.732;2023-04-24T16:58:40;6.45;;;5.60;;
74344;SDS011;62776;50.518;6.732;2023-04-24T17:01:29;6.47;;;5.65;;
74344;SDS011;62776;50.518;6.732;2023-04-24T17:04:19;6.57;;;5.97;;
74344;SDS011;62776;50.518;6.732;2023-04-24T17:07:09;6.18;;;5.68;;
74344;SDS011;62776;50.518;6.732;2023-04-24T17:10:04;6.97;;;6.35;;